Detall de PIREP

Printer-friendly versionPDF version

[2012/08/05 18:32:00]
Flight IATA:CT3126
Pilot Number:026
Company ICAO:CAT
Aircraft Type:DC85/A
PAX:0
Aircraft Registration:CARGO
Departing Airport: LFMP
Destination Airport: LEZG
Alternate Airport:LEDA
Online: VATSIM
Route:BGR H110 REBUL G23 GRAUS
Flight Level:F190
No Slew and time accel
No pause
Crash detect
Detect pilot in Cockpit between each 30 and 45 minutes
18:32 Zero fuel Weight: 187230 Lbs, Fuel Weight: 24016 Lbs
18:32 VATSIM:LFMP 051800Z AUTO 02008KT 9999 SCT031/// SCT041/// BKN052/// //////CB 25/19 Q1009
18:32 VATSIM:LEZG 051800Z 30024G35KT 270V330 9999 SCT025 FEW040CB 22/13 Q1009
18:32 VOICE CATALONIAN / IATA CT3126 INTERHUB ROUTE
18:35 Parking Brakes off
18:45 Take-off
18:45 Take off Weight: 210105 Lbs
18:45 Wind: 022º @ 008 Knots Heading: 146º
18:45 POS N42º 44´ 20´´ E002º 52´ 27´´
18:45 Gear Up: 162 Knots
18:45 Flaps:2 at 162 Knots
18:46 Flaps:1 at 190 Knots
18:47 Flaps:0 at 193 Knots
18:55 TOC
18:55 Fuel Weight: 19496 Lb
19:00 Wind:169º@039 Knots Heading: 255º Ground Speed: 429 Knots Altitude 18851 ft
19:13 TOD
19:13 Fuel Weight: 15120 Lb
19:15 Wind:264º@014 Knots Heading: 295º Ground Speed: 406 Knots Altitude 17168 ft
19:28 Flaps:1 at 208 Knots
19:28 Gear Down: 179 Knots
19:30 Wind:293º@014 Knots Heading: 320º Ground Speed: 173 Knots Altitude 2237 ft
19:30 Flaps:2 at 179 Knots
19:30 Flaps:3 at 180 Knots
19:31 Flaps:4 at 161 Knots
19:32 TouchDown:Rate -206 ft/min Speed: 134 Knots
19:32 Flaps:5 at 116 Knots
19:32 VATSIM:LEZG 051900Z 29014KT 9999 SCT025 FEW040CB 19/14 Q1011
19:32 Land
19:32 Wind:293º@014 Knots
19:32 Heading: 299º
19:32 Flight Duration: 00:47
19:32 Landing Weight: 200741 Lbs
19:32 POS N41º 39´ 37´´ W001º 01´ 12´´
19:38 Parking brakes on
19:38 Block to Block Duration: 01:03
19:38 Final Fuel: 13048 Lbls
19:38 Spent Fuel: 10967 Lbls
19:38 Flight Length: 270 NM
19:38 TOD Land Length: 84 NM

Exportar CSV

Powered by Drupal - Modified by Danger4k